Gas City, IN (46933)

4:29 AM EDT on March 30, 2017 (GMT -0400)
MY Yard Barn | | Change Station

Elev 853 ft 40.49 °N, 85.62 °W | Updated 3 seconds ago

Overcast
Overcast
46.0 °F
Feels Like 41 °F
N
10.0
Wind Variable Wind from ENE
Gusts 17.0 mph

Today
High -- | Low -- °F
--% Chance of Precip.
Yesterday
High -- | Low -- °F
Precip. -- in
Pressure 29.88 in
Visibility 5.0 miles
Clouds Scattered Clouds 5000 ft
Mostly Cloudy 6000 ft
Overcast 11000 ft
Windchill 41 °F
Dew Point 40 °F
Humidity 82%
Rainfall 0.00 in
Snow Depth Not available.
7:28 AM 8:05 PM
Waxing Crescent, 7% visible
METAR KMZZ 300815Z AUTO 10016G25KT 5SM HZ SCT050 BKN060 OVC110 07/02 A2988 RMK AO2 T00670023
Pressure 29.88 in
Visibility 5.0 miles
Clouds Scattered Clouds 5000 ft
Mostly Cloudy 6000 ft
Overcast 11000 ft
Windchill 41 °F
Dew Point 40 °F
Humidity 82%
Rainfall 0.00 in
Snow Depth Not available.
7:28 AM 8:05 PM
Waxing Crescent, 7% visible
METAR KMZZ 300815Z AUTO 10016G25KT 5SM HZ SCT050 BKN060 OVC110 07/02 A2988 RMK AO2 T00670023

Get Severe Weather Alerts

Thanks for signing up!

Be on the lookout for a verification email in your inbox.

You'll start receiving the daily forecast at 8 AM.

×

10-Day Weather Forecast

Almanac

Astronomy

Mar. 30, 2017 Rise Set
Actual Time
Civil Twilight
Nautical Twilight
Astronomical Twilight
Moon
Length of Visible Light
Length of Day
Tomorrow will be .
, % of the Moon is Illuminated

Today's Extremes

State Highs State Lows

Community

WunderPhotos

Upload Photos

1,962,540 photos uploaded!

WunderBlog® & News

Nearby

Air Quality

  Air Quality AQ Index Pollutant
Not available.

Snow Depth

Station Depth Elevation

Earthquake Activity

City Distance Mag. Time & Date
Minimum magnitude displayed is 2.5.

Earthquake Activity

City Distance Mag. Time & Date
Minimum magnitude displayed is 2.5.

Coastal Water Temperatures

Place Temperature

Stations

Nearby Weather Stations

Station Location Temp. Windchill Dew Point Humidity Wind Precip. Elev Updated Type
                   

Watches & Warnings

There are currently no watches in effect.